sensor_id;sensor_type;location;lat;lon;timestamp;pressure;altitude;pressure_sealevel;temperature;humidity
68634;BME280;55625;47.072;22.192;2023-01-16T00:01:29;99272.47;;;4.85;88.87
68634;BME280;55625;47.072;22.192;2023-01-16T00:03:55;99272.38;;;4.92;87.41
68634;BME280;55625;47.072;22.192;2023-01-16T00:06:20;99266.75;;;4.92;87.56
68634;BME280;55625;47.072;22.192;2023-01-16T00:08:46;99267.50;;;4.96;87.62
68634;BME280;55625;47.072;22.192;2023-01-16T00:11:14;99248.59;;;4.96;86.72
68634;BME280;55625;47.072;22.192;2023-01-16T00:13:40;99249.34;;;5.01;87.25
68634;BME280;55625;47.072;22.192;2023-01-16T00:16:06;99236.81;;;5.05;86.31
68634;BME280;55625;47.072;22.192;2023-01-16T00:18:32;99243.22;;;5.06;87.39
68634;BME280;55625;47.072;22.192;2023-01-16T00:20:58;99248.84;;;5.06;86.99
68634;BME280;55625;47.072;22.192;2023-01-16T00:23:24;99247.69;;;5.03;87.93
68634;BME280;55625;47.072;22.192;2023-01-16T00:25:50;99253.59;;;5.09;86.50
68634;BME280;55625;47.072;22.192;2023-01-16T00:28:16;99251.22;;;5.07;86.95
68634;BME280;55625;47.072;22.192;2023-01-16T00:30:42;99237.47;;;5.13;86.42
68634;BME280;55625;47.072;22.192;2023-01-16T00:33:08;99231.91;;;5.09;87.38
68634;BME280;55625;47.072;22.192;2023-01-16T00:35:34;99227.00;;;5.13;86.83
68634;BME280;55625;47.072;22.192;2023-01-16T00:38:01;99219.78;;;5.12;87.27
68634;BME280;55625;47.072;22.192;2023-01-16T00:40:27;99230.91;;;5.19;86.04
68634;BME280;55625;47.072;22.192;2023-01-16T00:42:53;99220.53;;;5.16;86.26
68634;BME280;55625;47.072;22.192;2023-01-16T00:45:19;99216.56;;;5.14;86.68
68634;BME280;55625;47.072;22.192;2023-01-16T00:47:44;99216.47;;;5.17;86.77
68634;BME280;55625;47.072;22.192;2023-01-16T00:50:11;99211.63;;;5.21;85.83
68634;BME280;55625;47.072;22.192;2023-01-16T00:52:37;99217.25;;;5.21;86.11
68634;BME280;55625;47.072;22.192;2023-01-16T00:55:03;99209.16;;;5.23;84.67
68634;BME280;55625;47.072;22.192;2023-01-16T00:57:29;99201.88;;;5.26;85.53
68634;BME280;55625;47.072;22.192;2023-01-16T00:59:55;99208.31;;;5.26;85.58
68634;BME280;55625;47.072;22.192;2023-01-16T01:02:21;99206.34;;;5.23;85.81
68634;BME280;55625;47.072;22.192;2023-01-16T01:04:47;99194.72;;;5.21;86.01
68634;BME280;55625;47.072;22.192;2023-01-16T01:07:12;99193.56;;;5.19;86.50
68634;BME280;55625;47.072;22.192;2023-01-16T01:09:38;99181.50;;;5.18;86.34
68634;BME280;55625;47.072;22.192;2023-01-16T01:12:04;99183.53;;;5.18;86.35
68634;BME280;55625;47.072;22.192;2023-01-16T01:14:30;99177.84;;;5.21;86.49
68634;BME280;55625;47.072;22.192;2023-01-16T01:16:56;99186.59;;;5.27;85.42
68634;BME280;55625;47.072;22.192;2023-01-16T01:19:22;99172.09;;;5.28;85.13
68634;BME280;55625;47.072;22.192;2023-01-16T01:21:47;99167.19;;;5.33;85.47
68634;BME280;55625;47.072;22.192;2023-01-16T01:24:13;99171.16;;;5.35;85.20
68634;BME280;55625;47.072;22.192;2023-01-16T01:26:39;99163.78;;;5.41;84.90
68634;BME280;55625;47.072;22.192;2023-01-16T01:29:05;99163.78;;;5.41;85.11
68634;BME280;55625;47.072;22.192;2023-01-16T01:31:31;99157.53;;;5.34;85.95
68634;BME280;55625;47.072;22.192;2023-01-16T01:33:56;99155.41;;;5.38;86.38
68634;BME280;55625;47.072;22.192;2023-01-16T01:36:22;99155.06;;;5.36;86.10
68634;BME280;55625;47.072;22.192;2023-01-16T01:38:48;99155.94;;;5.33;86.54
68634;BME280;55625;47.072;22.192;2023-01-16T01:41:16;99162.28;;;5.37;85.21
68634;BME280;55625;47.072;22.192;2023-01-16T01:43:45;99151.75;;;5.41;84.76
68634;BME280;55625;47.072;22.192;2023-01-16T01:46:32;99150.16;;;5.40;85.19
68634;BME280;55625;47.072;22.192;2023-01-16T01:49:29;99134.72;;;5.48;83.85
68634;BME280;55625;47.072;22.192;2023-01-16T01:51:59;99131.19;;;5.44;84.81
68634;BME280;55625;47.072;22.192;2023-01-16T01:54:38;99148.41;;;5.46;83.77
68634;BME280;55625;47.072;22.192;2023-01-16T01:57:19;99134.00;;;5.44;84.04
68634;BME280;55625;47.072;22.192;2023-01-16T02:00:05;99132.31;;;5.46;84.31
68634;BME280;55625;47.072;22.192;2023-01-16T02:02:37;99136.00;;;5.43;84.80
68634;BME280;55625;47.072;22.192;2023-01-16T02:05:08;99133.63;;;5.42;84.96
68634;BME280;55625;47.072;22.192;2023-01-16T02:07:35;99122.72;;;5.44;84.44
68634;BME280;55625;47.072;22.192;2023-01-16T02:11:03;99120.28;;;5.46;84.39
68634;BME280;55625;47.072;22.192;2023-01-16T02:13:09;99122.38;;;5.42;84.87
68634;BME280;55625;47.072;22.192;2023-01-16T02:15:36;99132.84;;;5.41;85.12
68634;BME280;55625;47.072;22.192;2023-01-16T02:18:23;99134.00;;;5.44;84.25
68634;BME280;55625;47.072;22.192;2023-01-16T02:33:05;99111.47;;;5.44;83.64
68634;BME280;55625;47.072;22.192;2023-01-16T02:35:58;99111.56;;;5.40;84.48
68634;BME280;55625;47.072;22.192;2023-01-16T02:38:52;99110.47;;;5.34;85.19
68634;BME280;55625;47.072;22.192;2023-01-16T02:44:35;99108.47;;;5.35;84.90
68634;BME280;55625;47.072;22.192;2023-01-16T02:47:15;99115.97;;;5.41;83.87
68634;BME280;55625;47.072;22.192;2023-01-16T02:50:13;99118.78;;;5.41;84.35
68634;BME280;55625;47.072;22.192;2023-01-16T02:52:59;99117.19;;;5.40;84.00
68634;BME280;55625;47.072;22.192;2023-01-16T02:55:36;99114.66;;;5.46;83.64
68634;BME280;55625;47.072;22.192;2023-01-16T02:58:06;99103.53;;;5.58;82.09
68634;BME280;55625;47.072;22.192;2023-01-16T03:00:34;99097.91;;;5.58;81.69
68634;BME280;55625;47.072;22.192;2023-01-16T03:03:01;99096.75;;;5.56;81.95
68634;BME280;55625;47.072;22.192;2023-01-16T03:05:38;99093.06;;;5.59;81.63
68634;BME280;55625;47.072;22.192;2023-01-16T03:08:45;99090.69;;;5.57;82.54
68634;BME280;55625;47.072;22.192;2023-01-16T03:11:25;99090.34;;;5.55;82.15
68634;BME280;55625;47.072;22.192;2023-01-16T03:14:16;99095.88;;;5.59;82.04
68634;BME280;55625;47.072;22.192;2023-01-16T03:17:15;99085.06;;;5.57;81.98
68634;BME280;55625;47.072;22.192;2023-01-16T03:22:56;99092.38;;;5.55;81.98
68634;BME280;55625;47.072;22.192;2023-01-16T03:28:40;99075.56;;;5.51;82.76
68634;BME280;55625;47.072;22.192;2023-01-16T03:39:26;99076.75;;;5.50;82.43
68634;BME280;55625;47.072;22.192;2023-01-16T03:41:57;99066.72;;;5.49;82.32
68634;BME280;55625;47.072;22.192;2023-01-16T03:44:35;99073.59;;;5.48;83.12
68634;BME280;55625;47.072;22.192;2023-01-16T03:47:08;99062.78;;;5.47;82.40
68634;BME280;55625;47.072;22.192;2023-01-16T03:49:40;99067.53;;;5.50;82.78
68634;BME280;55625;47.072;22.192;2023-01-16T03:52:12;99046.59;;;5.51;82.15
68634;BME280;55625;47.072;22.192;2023-01-16T03:57:24;99037.22;;;5.57;81.40
68634;BME280;55625;47.072;22.192;2023-01-16T03:59:52;99039.69;;;5.55;81.49
68634;BME280;55625;47.072;22.192;2023-01-16T04:02:44;99041.34;;;5.53;81.81
68634;BME280;55625;47.072;22.192;2023-01-16T04:05:40;99035.72;;;5.53;82.00
68634;BME280;55625;47.072;22.192;2023-01-16T04:08:28;99026.09;;;5.50;81.61
68634;BME280;55625;47.072;22.192;2023-01-16T04:10:57;99020.47;;;5.50;81.21
68634;BME280;55625;47.072;22.192;2023-01-16T04:13:28;99019.69;;;5.50;80.70
68634;BME280;55625;47.072;22.192;2023-01-16T04:15:58;99025.88;;;5.61;79.20
68634;BME280;55625;47.072;22.192;2023-01-16T04:18:31;99019.38;;;5.64;78.54
68634;BME280;55625;47.072;22.192;2023-01-16T04:20:58;99027.47;;;5.62;79.16
68634;BME280;55625;47.072;22.192;2023-01-16T04:23:24;99029.56;;;5.58;79.78
68634;BME280;55625;47.072;22.192;2023-01-16T04:25:50;99035.28;;;5.54;79.82
68634;BME280;55625;47.072;22.192;2023-01-16T04:28:16;99024.09;;;5.51;80.33
68634;BME280;55625;47.072;22.192;2023-01-16T04:30:42;99030.94;;;5.50;80.27
68634;BME280;55625;47.072;22.192;2023-01-16T04:33:08;99019.34;;;5.48;80.34
68634;BME280;55625;47.072;22.192;2023-01-16T04:35:34;99018.97;;;5.46;80.16
68634;BME280;55625;47.072;22.192;2023-01-16T04:38:00;99020.88;;;5.52;80.33
68634;BME280;55625;47.072;22.192;2023-01-16T04:40:26;99017.31;;;5.48;80.31
68634;BME280;55625;47.072;22.192;2023-01-16T04:42:52;99009.31;;;5.47;80.13
68634;BME280;55625;47.072;22.192;2023-01-16T04:45:21;99004.91;;;5.46;80.23
68634;BME280;55625;47.072;22.192;2023-01-16T04:47:48;99000.16;;;5.43;81.05
68634;BME280;55625;47.072;22.192;2023-01-16T04:50:14;98995.75;;;5.42;80.40
68634;BME280;55625;47.072;22.192;2023-01-16T04:52:41;98992.16;;;5.41;81.58
68634;BME280;55625;47.072;22.192;2023-01-16T04:55:08;98985.75;;;5.41;81.47
68634;BME280;55625;47.072;22.192;2023-01-16T04:57:34;98977.28;;;5.41;80.89
68634;BME280;55625;47.072;22.192;2023-01-16T05:00:00;98978.53;;;5.40;80.36
68634;BME280;55625;47.072;22.192;2023-01-16T05:02:26;98983.81;;;5.38;81.20
68634;BME280;55625;47.072;22.192;2023-01-16T05:04:52;98977.03;;;5.35;81.95
68634;BME280;55625;47.072;22.192;2023-01-16T05:07:17;98982.31;;;5.33;81.29
68634;BME280;55625;47.072;22.192;2023-01-16T05:09:44;98973.41;;;5.35;81.58
68634;BME280;55625;47.072;22.192;2023-01-16T05:12:10;98966.56;;;5.36;80.86
68634;BME280;55625;47.072;22.192;2023-01-16T05:14:35;98974.22;;;5.35;80.91
68634;BME280;55625;47.072;22.192;2023-01-16T05:17:01;98962.16;;;5.35;81.52
68634;BME280;55625;47.072;22.192;2023-01-16T05:19:27;98948.53;;;5.33;81.20
68634;BME280;55625;47.072;22.192;2023-01-16T05:21:53;98951.34;;;5.33;81.52
68634;BME280;55625;47.072;22.192;2023-01-16T05:24:19;98958.22;;;5.32;81.64
68634;BME280;55625;47.072;22.192;2023-01-16T05:26:44;98955.03;;;5.30;81.71
68634;BME280;55625;47.072;22.192;2023-01-16T05:29:10;98940.28;;;5.26;81.46
68634;BME280;55625;47.072;22.192;2023-01-16T05:31:36;98936.31;;;5.23;82.03
68634;BME280;55625;47.072;22.192;2023-01-16T05:34:02;98940.84;;;5.17;81.66
68634;BME280;55625;47.072;22.192;2023-01-16T05:36:28;98936.91;;;5.15;81.79
68634;BME280;55625;47.072;22.192;2023-01-16T05:38:53;98949.03;;;5.12;82.26
68634;BME280;55625;47.072;22.192;2023-01-16T05:41:20;98941.91;;;5.07;83.23
68634;BME280;55625;47.072;22.192;2023-01-16T05:43:45;98942.41;;;5.02;83.23
68634;BME280;55625;47.072;22.192;2023-01-16T05:46:11;98932.91;;;4.96;83.84
68634;BME280;55625;47.072;22.192;2023-01-16T05:48:37;98935.44;;;4.90;83.56
68634;BME280;55625;47.072;22.192;2023-01-16T05:51:05;98937.94;;;4.85;85.27
68634;BME280;55625;47.072;22.192;2023-01-16T05:53:31;98940.06;;;4.81;85.24
68634;BME280;55625;47.072;22.192;2023-01-16T05:55:58;98944.16;;;4.76;85.10
68634;BME280;55625;47.072;22.192;2023-01-16T05:58:24;98934.59;;;4.74;84.88
68634;BME280;55625;47.072;22.192;2023-01-16T06:00:50;98933.88;;;4.70;85.16
68634;BME280;55625;47.072;22.192;2023-01-16T06:03:16;98943.59;;;4.65;85.61
68634;BME280;55625;47.072;22.192;2023-01-16T06:05:42;98938.84;;;4.62;85.48
68634;BME280;55625;47.072;22.192;2023-01-16T06:08:08;98938.50;;;4.60;85.58
68634;BME280;55625;47.072;22.192;2023-01-16T06:10:34;98936.16;;;4.55;84.97
68634;BME280;55625;47.072;22.192;2023-01-16T06:13:01;98930.97;;;4.53;85.67
68634;BME280;55625;47.072;22.192;2023-01-16T06:15:28;98923.84;;;4.49;85.65
68634;BME280;55625;47.072;22.192;2023-01-16T06:17:53;98924.28;;;4.47;86.87
68634;BME280;55625;47.072;22.192;2023-01-16T06:20:21;98921.56;;;4.44;86.64
68634;BME280;55625;47.072;22.192;2023-01-16T06:22:47;98924.78;;;4.42;86.26
68634;BME280;55625;47.072;22.192;2023-01-16T06:25:13;98923.22;;;4.41;86.38
68634;BME280;55625;47.072;22.192;2023-01-16T06:27:39;98931.28;;;4.39;86.74
68634;BME280;55625;47.072;22.192;2023-01-16T06:30:06;98922.84;;;4.39;86.76
68634;BME280;55625;47.072;22.192;2023-01-16T06:32:32;98912.41;;;4.40;87.26
68634;BME280;55625;47.072;22.192;2023-01-16T06:34:58;98917.66;;;4.38;87.79
68634;BME280;55625;47.072;22.192;2023-01-16T06:37:24;98914.06;;;4.37;86.50
68634;BME280;55625;47.072;22.192;2023-01-16T06:39:50;98916.88;;;4.37;87.12
68634;BME280;55625;47.072;22.192;2023-01-16T06:42:16;98918.91;;;4.36;88.02
68634;BME280;55625;47.072;22.192;2023-01-16T06:44:41;98909.69;;;4.36;85.90
68634;BME280;55625;47.072;22.192;2023-01-16T06:47:09;98901.97;;;4.40;85.72
68634;BME280;55625;47.072;22.192;2023-01-16T06:49:34;98892.66;;;4.43;85.35
68634;BME280;55625;47.072;22.192;2023-01-16T06:52:00;98884.25;;;4.43;85.28
68634;BME280;55625;47.072;22.192;2023-01-16T06:54:27;98889.44;;;4.45;85.74
68634;BME280;55625;47.072;22.192;2023-01-16T06:56:53;98885.81;;;4.44;85.83
68634;BME280;55625;47.072;22.192;2023-01-16T06:59:18;98887.06;;;4.43;87.01
68634;BME280;55625;47.072;22.192;2023-01-16T07:01:44;98886.25;;;4.43;87.22
68634;BME280;55625;47.072;22.192;2023-01-16T07:04:10;98879.84;;;4.42;85.96
68634;BME280;55625;47.072;22.192;2023-01-16T07:06:36;98877.31;;;4.48;85.90
68634;BME280;55625;47.072;22.192;2023-01-16T07:09:04;98883.66;;;4.52;85.85
68634;BME280;55625;47.072;22.192;2023-01-16T07:11:29;98882.34;;;4.56;85.52
68634;BME280;55625;47.072;22.192;2023-01-16T07:13:55;98869.03;;;4.60;86.36
68634;BME280;55625;47.072;22.192;2023-01-16T07:16:41;98855.34;;;4.62;86.18
68634;BME280;55625;47.072;22.192;2023-01-16T07:19:26;98866.88;;;4.68;85.29
68634;BME280;55625;47.072;22.192;2023-01-16T07:22:12;98867.13;;;4.74;84.81
68634;BME280;55625;47.072;22.192;2023-01-16T07:24:54;98852.91;;;4.81;84.32
68634;BME280;55625;47.072;22.192;2023-01-16T07:27:20;98855.66;;;4.84;86.99
68634;BME280;55625;47.072;22.192;2023-01-16T07:29:46;98858.00;;;4.86;87.33
68634;BME280;55625;47.072;22.192;2023-01-16T07:32:12;98841.88;;;4.90;86.75
68634;BME280;55625;47.072;22.192;2023-01-16T07:34:38;98845.75;;;4.96;86.30
68634;BME280;55625;47.072;22.192;2023-01-16T07:37:03;98831.97;;;5.02;86.73
68634;BME280;55625;47.072;22.192;2023-01-16T07:39:31;98828.63;;;5.07;86.60
68634;BME280;55625;47.072;22.192;2023-01-16T07:42:06;98826.41;;;5.14;87.37
68634;BME280;55625;47.072;22.192;2023-01-16T07:44:32;98828.69;;;5.19;87.80
68634;BME280;55625;47.072;22.192;2023-01-16T07:46:59;98833.03;;;5.24;87.91
68634;BME280;55625;47.072;22.192;2023-01-16T07:49:25;98836.09;;;5.29;87.82
68634;BME280;55625;47.072;22.192;2023-01-16T07:51:51;98820.28;;;5.36;86.25
68634;BME280;55625;47.072;22.192;2023-01-16T07:54:17;98814.91;;;5.41;85.93
68634;BME280;55625;47.072;22.192;2023-01-16T07:56:43;98817.97;;;5.47;86.09
68634;BME280;55625;47.072;22.192;2023-01-16T07:59:08;98811.38;;;5.53;84.93
68634;BME280;55625;47.072;22.192;2023-01-16T08:01:34;98816.03;;;5.60;85.54
68634;BME280;55625;47.072;22.192;2023-01-16T08:04:00;98804.94;;;5.69;84.38
68634;BME280;55625;47.072;22.192;2023-01-16T08:06:26;98803.59;;;5.74;85.38
68634;BME280;55625;47.072;22.192;2023-01-16T08:08:52;98802.59;;;5.80;85.14
68634;BME280;55625;47.072;22.192;2023-01-16T08:11:18;98805.63;;;5.89;84.31
68634;BME280;55625;47.072;22.192;2023-01-16T08:14:03;98801.81;;;5.96;84.62
68634;BME280;55625;47.072;22.192;2023-01-16T08:16:30;98799.56;;;6.04;83.81
68634;BME280;55625;47.072;22.192;2023-01-16T08:18:56;98796.19;;;6.09;84.56
68634;BME280;55625;47.072;22.192;2023-01-16T08:21:22;98785.53;;;6.16;85.39
68634;BME280;55625;47.072;22.192;2023-01-16T08:23:48;98790.63;;;6.21;84.82
68634;BME280;55625;47.072;22.192;2023-01-16T08:26:14;98797.28;;;6.28;84.49
68634;BME280;55625;47.072;22.192;2023-01-16T08:28:40;98785.91;;;6.31;83.79
68634;BME280;55625;47.072;22.192;2023-01-16T08:31:10;98788.94;;;6.37;83.90
68634;BME280;55625;47.072;22.192;2023-01-16T08:33:38;98792.81;;;6.43;83.54
68634;BME280;55625;47.072;22.192;2023-01-16T08:36:07;98794.28;;;6.47;83.48
68634;BME280;55625;47.072;22.192;2023-01-16T08:38:34;98790.56;;;6.50;83.58
68634;BME280;55625;47.072;22.192;2023-01-16T08:41:00;98790.00;;;6.56;84.21
68634;BME280;55625;47.072;22.192;2023-01-16T08:43:26;98791.91;;;6.59;82.95
68634;BME280;55625;47.072;22.192;2023-01-16T08:46:21;98786.97;;;6.63;82.45
68634;BME280;55625;47.072;22.192;2023-01-16T08:49:13;98791.13;;;6.71;81.45
68634;BME280;55625;47.072;22.192;2023-01-16T08:51:58;98791.25;;;6.80;79.85
68634;BME280;55625;47.072;22.192;2023-01-16T08:54:25;98784.94;;;6.89;78.43
68634;BME280;55625;47.072;22.192;2023-01-16T08:56:51;98783.00;;;6.98;76.47
68634;BME280;55625;47.072;22.192;2023-01-16T08:59:17;98792.84;;;7.06;75.46
68634;BME280;55625;47.072;22.192;2023-01-16T09:01:43;98789.78;;;7.13;74.79
68634;BME280;55625;47.072;22.192;2023-01-16T09:04:09;98789.19;;;7.19;74.79
68634;BME280;55625;47.072;22.192;2023-01-16T09:06:35;98782.97;;;7.24;75.27
68634;BME280;55625;47.072;22.192;2023-01-16T09:09:06;98775.19;;;7.28;74.43
68634;BME280;55625;47.072;22.192;2023-01-16T09:11:35;98782.63;;;7.34;74.56
68634;BME280;55625;47.072;22.192;2023-01-16T09:14:20;98771.22;;;7.38;73.34
68634;BME280;55625;47.072;22.192;2023-01-16T09:16:46;98764.22;;;7.42;73.75
68634;BME280;55625;47.072;22.192;2023-01-16T09:19:12;98770.53;;;7.46;72.76
68634;BME280;55625;47.072;22.192;2023-01-16T09:21:38;98764.28;;;7.52;72.15
68634;BME280;55625;47.072;22.192;2023-01-16T09:24:04;98777.50;;;7.55;70.32
68634;BME280;55625;47.072;22.192;2023-01-16T09:26:30;98770.00;;;7.61;72.28
68634;BME280;55625;47.072;22.192;2023-01-16T09:28:56;98765.47;;;7.63;71.97
68634;BME280;55625;47.072;22.192;2023-01-16T09:31:22;98770.13;;;7.70;72.16
68634;BME280;55625;47.072;22.192;2023-01-16T09:33:48;98772.34;;;7.75;71.87
68634;BME280;55625;47.072;22.192;2023-01-16T09:36:15;98764.06;;;7.81;70.99
68634;BME280;55625;47.072;22.192;2023-01-16T09:38:41;98756.59;;;7.87;71.79
68634;BME280;55625;47.072;22.192;2023-01-16T09:41:15;98745.94;;;7.91;70.80
68634;BME280;55625;47.072;22.192;2023-01-16T09:44:16;98742.53;;;7.96;71.45
68634;BME280;55625;47.072;22.192;2023-01-16T09:46:48;98726.25;;;8.00;69.62
68634;BME280;55625;47.072;22.192;2023-01-16T09:49:23;98719.53;;;8.06;68.83
68634;BME280;55625;47.072;22.192;2023-01-16T09:52:04;98707.16;;;8.13;67.35
68634;BME280;55625;47.072;22.192;2023-01-16T09:54:57;98709.06;;;8.16;67.07
68634;BME280;55625;47.072;22.192;2023-01-16T09:57:46;98694.00;;;8.19;67.12
68634;BME280;55625;47.072;22.192;2023-01-16T10:00:34;98696.69;;;8.23;66.15
68634;BME280;55625;47.072;22.192;2023-01-16T10:03:01;98691.09;;;8.32;64.95
68634;BME280;55625;47.072;22.192;2023-01-16T10:05:38;98682.06;;;8.37;66.00
68634;BME280;55625;47.072;22.192;2023-01-16T10:08:17;98677.97;;;8.38;64.94
68634;BME280;55625;47.072;22.192;2023-01-16T10:11:14;98668.69;;;8.37;65.79
68634;BME280;55625;47.072;22.192;2023-01-16T10:26:07;98630.38;;;8.36;67.49
68634;BME280;55625;47.072;22.192;2023-01-16T10:31:27;98614.59;;;8.26;71.86
68634;BME280;55625;47.072;22.192;2023-01-16T10:36:41;98596.50;;;8.15;73.78
68634;BME280;55625;47.072;22.192;2023-01-16T10:39:11;98583.16;;;8.15;72.86
68634;BME280;55625;47.072;22.192;2023-01-16T10:41:49;98574.69;;;8.15;73.29
68634;BME280;55625;47.072;22.192;2023-01-16T10:44:42;98569.97;;;8.12;74.29
68634;BME280;55625;47.072;22.192;2023-01-16T10:47:34;98554.25;;;8.11;73.35
68634;BME280;55625;47.072;22.192;2023-01-16T10:50:22;98533.69;;;8.10;72.17
68634;BME280;55625;47.072;22.192;2023-01-16T10:52:49;98520.50;;;8.07;71.17
68634;BME280;55625;47.072;22.192;2023-01-16T10:55:16;98511.06;;;8.01;71.80
68634;BME280;55625;47.072;22.192;2023-01-16T10:58:02;98501.50;;;8.08;70.85
68634;BME280;55625;47.072;22.192;2023-01-16T11:00:35;98500.09;;;8.13;70.05
68634;BME280;55625;47.072;22.192;2023-01-16T11:03:27;98489.91;;;8.15;69.79
68634;BME280;55625;47.072;22.192;2023-01-16T11:06:07;98493.84;;;8.18;69.75
68634;BME280;55625;47.072;22.192;2023-01-16T11:08:33;98480.16;;;8.16;69.77
68634;BME280;55625;47.072;22.192;2023-01-16T11:11:01;98469.19;;;8.18;70.59
68634;BME280;55625;47.072;22.192;2023-01-16T11:13:28;98465.09;;;8.19;69.86
68634;BME280;55625;47.072;22.192;2023-01-16T11:18:58;98449.09;;;8.25;70.31
68634;BME280;55625;47.072;22.192;2023-01-16T11:21:31;98442.81;;;8.21;70.47
68634;BME280;55625;47.072;22.192;2023-01-16T11:24:13;98438.25;;;8.24;71.99
68634;BME280;55625;47.072;22.192;2023-01-16T11:26:46;98436.88;;;8.28;70.14
68634;BME280;55625;47.072;22.192;2023-01-16T11:29:17;98434.22;;;8.34;69.19
68634;BME280;55625;47.072;22.192;2023-01-16T11:32:06;98422.91;;;8.43;68.10
68634;BME280;55625;47.072;22.192;2023-01-16T11:34:33;98414.75;;;8.45;68.59
68634;BME280;55625;47.072;22.192;2023-01-16T11:37:03;98421.81;;;8.50;68.56
68634;BME280;55625;47.072;22.192;2023-01-16T11:39:33;98419.94;;;8.47;68.23
68634;BME280;55625;47.072;22.192;2023-01-16T11:42:11;98412.72;;;8.46;67.24
68634;BME280;55625;47.072;22.192;2023-01-16T11:44:58;98406.28;;;8.45;67.24
68634;BME280;55625;47.072;22.192;2023-01-16T11:47:50;98398.75;;;8.42;67.71
68634;BME280;55625;47.072;22.192;2023-01-16T11:50:32;98406.75;;;8.44;67.20
68634;BME280;55625;47.072;22.192;2023-01-16T11:52:58;98403.91;;;8.44;67.20
68634;BME280;55625;47.072;22.192;2023-01-16T11:56:14;98405.47;;;8.45;65.56
68634;BME280;55625;47.072;22.192;2023-01-16T12:14:17;98374.41;;;8.35;69.49
68634;BME280;55625;47.072;22.192;2023-01-16T12:23:22;98353.66;;;8.29;71.07
68634;BME280;55625;47.072;22.192;2023-01-16T12:26:29;98338.72;;;8.20;71.90
68634;BME280;55625;47.072;22.192;2023-01-16T12:29:31;98334.31;;;8.19;72.15
68634;BME280;55625;47.072;22.192;2023-01-16T12:38:15;98317.38;;;8.09;72.42
68634;BME280;55625;47.072;22.192;2023-01-16T12:52:37;98287.41;;;7.85;74.34
68634;BME280;55625;47.072;22.192;2023-01-16T12:55:51;98284.59;;;7.85;75.15
68634;BME280;55625;47.072;22.192;2023-01-16T12:58:25;98267.47;;;7.79;75.98
68634;BME280;55625;47.072;22.192;2023-01-16T13:01:17;98264.03;;;7.75;75.95
68634;BME280;55625;47.072;22.192;2023-01-16T13:03:53;98268.59;;;7.72;75.77
68634;BME280;55625;47.072;22.192;2023-01-16T13:07:01;98244.75;;;7.73;75.73
68634;BME280;55625;47.072;22.192;2023-01-16T13:09:50;98242.56;;;7.68;75.19
68634;BME280;55625;47.072;22.192;2023-01-16T13:12:38;98230.00;;;7.69;75.15
68634;BME280;55625;47.072;22.192;2023-01-16T13:15:28;98223.09;;;7.70;74.73
68634;BME280;55625;47.072;22.192;2023-01-16T13:18:23;98233.28;;;7.68;75.49
68634;BME280;55625;47.072;22.192;2023-01-16T13:21:02;98225.44;;;7.72;74.42
68634;BME280;55625;47.072;22.192;2023-01-16T13:24:09;98220.09;;;7.65;74.76
68634;BME280;55625;47.072;22.192;2023-01-16T13:26:39;98218.09;;;7.65;74.29
68634;BME280;55625;47.072;22.192;2023-01-16T13:29:20;98205.19;;;7.64;74.22
68634;BME280;55625;47.072;22.192;2023-01-16T13:31:58;98205.66;;;7.63;74.82
68634;BME280;55625;47.072;22.192;2023-01-16T13:34:43;98210.06;;;7.64;74.82
68634;BME280;55625;47.072;22.192;2023-01-16T13:40:43;98196.09;;;7.60;75.01
68634;BME280;55625;47.072;22.192;2023-01-16T13:43:24;98194.06;;;7.61;74.53
68634;BME280;55625;47.072;22.192;2023-01-16T13:46:13;98196.88;;;7.61;74.28
68634;BME280;55625;47.072;22.192;2023-01-16T13:48:39;98185.59;;;7.61;74.83
68634;BME280;55625;47.072;22.192;2023-01-16T13:51:15;98187.31;;;7.58;74.10
68634;BME280;55625;47.072;22.192;2023-01-16T13:53:48;98168.34;;;7.59;73.83
68634;BME280;55625;47.072;22.192;2023-01-16T13:56:22;98170.38;;;7.58;74.46
68634;BME280;55625;47.072;22.192;2023-01-16T13:59:25;98166.78;;;7.58;74.10
68634;BME280;55625;47.072;22.192;2023-01-16T14:01:56;98157.84;;;7.59;73.61
68634;BME280;55625;47.072;22.192;2023-01-16T14:06:57;98150.94;;;7.60;72.81
68634;BME280;55625;47.072;22.192;2023-01-16T14:12:35;98141.03;;;7.65;72.35
68634;BME280;55625;47.072;22.192;2023-01-16T14:15:20;98146.25;;;7.66;71.69
68634;BME280;55625;47.072;22.192;2023-01-16T14:18:20;98134.94;;;7.66;71.76
68634;BME280;55625;47.072;22.192;2023-01-16T14:20:52;98125.22;;;7.67;70.67
68634;BME280;55625;47.072;22.192;2023-01-16T14:23:33;98126.78;;;7.68;70.01
68634;BME280;55625;47.072;22.192;2023-01-16T14:26:44;98114.41;;;7.66;70.44
68634;BME280;55625;47.072;22.192;2023-01-16T14:29:20;98112.97;;;7.61;70.83
68634;BME280;55625;47.072;22.192;2023-01-16T14:32:17;98104.19;;;7.59;70.21
68634;BME280;55625;47.072;22.192;2023-01-16T14:37:30;98106.88;;;7.54;70.37
68634;BME280;55625;47.072;22.192;2023-01-16T14:40:20;98102.66;;;7.49;71.33
68634;BME280;55625;47.072;22.192;2023-01-16T14:42:54;98092.63;;;7.48;71.42
68634;BME280;55625;47.072;22.192;2023-01-16T14:46:13;98088.88;;;7.42;72.21
68634;BME280;55625;47.072;22.192;2023-01-16T14:49:40;98075.88;;;7.35;71.92
68634;BME280;55625;47.072;22.192;2023-01-16T14:55:33;98074.13;;;7.29;70.99
68634;BME280;55625;47.072;22.192;2023-01-16T14:58:00;98080.25;;;7.27;70.74
68634;BME280;55625;47.072;22.192;2023-01-16T15:00:27;98077.91;;;7.26;69.61
68634;BME280;55625;47.072;22.192;2023-01-16T15:03:07;98075.88;;;7.26;69.50
68634;BME280;55625;47.072;22.192;2023-01-16T15:05:57;98070.53;;;7.28;69.89
68634;BME280;55625;47.072;22.192;2023-01-16T15:08:35;98074.13;;;7.29;69.64
68634;BME280;55625;47.072;22.192;2023-01-16T15:14:21;98063.47;;;7.33;69.28
68634;BME280;55625;47.072;22.192;2023-01-16T15:22:58;98052.53;;;7.35;68.75
68634;BME280;55625;47.072;22.192;2023-01-16T15:36:44;98014.28;;;7.15;72.44
68634;BME280;55625;47.072;22.192;2023-01-16T15:39:30;98018.06;;;7.12;72.64
68634;BME280;55625;47.072;22.192;2023-01-16T15:44:59;98006.94;;;7.09;73.40